createdAt,value
2019-05-01T00:01:05.420Z,9.50
2019-05-01T00:05:27.316Z,9.50
2019-05-01T00:09:32.695Z,9.40
2019-05-01T00:13:37.875Z,9.30
2019-05-01T00:17:43.108Z,9.20
2019-05-01T00:21:47.932Z,9.20
2019-05-01T00:25:52.916Z,9.20
2019-05-01T00:29:57.859Z,9.30
2019-05-01T00:34:02.948Z,9.20
2019-05-01T00:38:07.704Z,9.00
2019-05-01T00:42:12.583Z,9.10
2019-05-01T00:46:17.713Z,9.30
2019-05-01T00:50:22.448Z,9.50
2019-05-01T00:54:28.509Z,9.50
2019-05-01T00:58:55.208Z,9.60
2019-05-01T01:03:00.178Z,9.70
2019-05-01T01:07:05.376Z,9.90
2019-05-01T01:11:10.299Z,10.00
2019-05-01T01:15:15.469Z,10.00
2019-05-01T01:19:20.349Z,9.80
2019-05-01T01:23:26.730Z,9.70
2019-05-01T01:27:31.633Z,9.70
2019-05-01T01:31:36.535Z,9.40
2019-05-01T01:35:41.422Z,9.30
2019-05-01T01:39:46.304Z,9.60
2019-05-01T01:44:01.104Z,9.60
2019-05-01T01:48:15.580Z,9.30
2019-05-01T01:52:21.179Z,9.00
2019-05-01T01:56:26.604Z,8.80
2019-05-01T02:00:52.426Z,8.80
2019-05-01T02:05:08.171Z,8.80
2019-05-01T02:09:13.468Z,8.70
2019-05-01T02:13:18.536Z,8.60
2019-05-01T02:17:23.596Z,8.70
2019-05-01T02:21:28.407Z,8.70
2019-05-01T02:25:36.574Z,8.70
2019-05-01T02:29:47.492Z,8.80
2019-05-01T02:33:54.431Z,9.00
2019-05-01T02:37:59.994Z,9.20
2019-05-01T02:42:06.300Z,9.30
2019-05-01T02:46:13.594Z,9.30
2019-05-01T02:50:19.985Z,9.00
2019-05-01T02:54:26.065Z,8.70
2019-05-01T02:58:31.134Z,8.70
2019-05-01T03:02:37.558Z,8.70
2019-05-01T03:06:42.743Z,8.60
2019-05-01T03:10:47.577Z,8.80
2019-05-01T03:14:56.068Z,8.90
2019-05-01T03:19:03.832Z,9.00
2019-05-01T03:23:32.198Z,9.00
2019-05-01T03:27:37.359Z,8.80
2019-05-01T03:31:42.274Z,8.70
2019-05-01T03:35:47.641Z,8.50
2019-05-01T03:39:53.039Z,8.10
2019-05-01T03:43:58.851Z,8.00
2019-05-01T03:48:04.234Z,7.90
2019-05-01T03:52:09.728Z,7.80
2019-05-01T03:56:15.153Z,7.90
2019-05-01T04:00:27.951Z,8.20
2019-05-01T04:04:33.221Z,8.40
2019-05-01T04:08:38.104Z,8.20
2019-05-01T04:12:44.103Z,8.00
2019-05-01T04:16:52.946Z,7.80
2019-05-01T04:20:58.686Z,8.10
2019-05-01T04:25:03.790Z,8.20
2019-05-01T04:29:31.021Z,8.40
2019-05-01T04:33:38.261Z,8.30
2019-05-01T04:37:43.181Z,8.10
2019-05-01T04:41:48.366Z,8.00
2019-05-01T04:45:53.757Z,8.10
2019-05-01T04:49:58.695Z,8.20
2019-05-01T04:54:05.286Z,8.40
2019-05-01T04:58:10.625Z,8.30
2019-05-01T05:02:19.882Z,8.50
2019-05-01T05:06:25.624Z,8.20
2019-05-01T05:10:31.395Z,7.80
2019-05-01T05:14:38.115Z,8.00
2019-05-01T05:18:43.500Z,8.10
2019-05-01T05:22:48.782Z,8.10
2019-05-01T05:26:55.040Z,8.00
2019-05-01T05:31:01.632Z,8.10
2019-05-01T05:35:08.858Z,8.00
2019-05-01T05:39:27.876Z,8.20
2019-05-01T05:43:33.480Z,8.20
2019-05-01T05:47:38.557Z,8.40
2019-05-01T05:52:04.754Z,8.60
2019-05-01T05:56:15.816Z,8.80
2019-05-01T06:00:36.071Z,8.70
2019-05-01T06:05:00.681Z,8.70
2019-05-01T06:09:08.928Z,8.90
2019-05-01T06:13:21.954Z,8.90
2019-05-01T06:17:45.612Z,9.20
2019-05-01T06:22:12.417Z,9.40
2019-05-01T06:26:31.891Z,9.60
2019-05-01T06:30:36.084Z,9.90
2019-05-01T06:34:42.177Z,10.10
2019-05-01T06:38:47.573Z,10.20
2019-05-01T06:42:52.764Z,10.10
2019-05-01T06:47:14.597Z,10.20
2019-05-01T06:51:38.943Z,10.40
2019-05-01T06:55:44.417Z,10.50
2019-05-01T06:59:49.827Z,10.40
2019-05-01T07:04:03.571Z,10.50
2019-05-01T07:08:02.637Z,10.50
2019-05-01T07:12:12.896Z,10.60
2019-05-01T07:16:17.952Z,10.60
2019-05-01T07:20:47.228Z,10.90
2019-05-01T07:24:53.628Z,10.70
2019-05-01T07:29:06.059Z,10.80
2019-05-01T07:33:12.025Z,11.20
2019-05-01T07:37:15.969Z,11.40
2019-05-01T07:41:23.108Z,11.70
2019-05-01T07:45:53.288Z,11.70
2019-05-01T07:50:01.692Z,11.60
2019-05-01T07:54:08.987Z,12.00
2019-05-01T07:58:15.691Z,12.30
2019-05-01T08:02:20.120Z,12.40
2019-05-01T08:06:25.417Z,12.30
2019-05-01T08:10:31.487Z,12.80
2019-05-01T08:14:36.985Z,12.90
2019-05-01T08:18:52.459Z,13.00
2019-05-01T08:22:57.725Z,13.00
2019-05-01T08:27:05.943Z,13.10
2019-05-01T08:31:33.000Z,13.40
2019-05-01T08:35:38.149Z,13.60
2019-05-01T08:39:44.274Z,13.90
2019-05-01T08:43:54.113Z,13.90
2019-05-01T08:48:16.429Z,13.90
2019-05-01T08:52:21.384Z,13.60
2019-05-01T08:56:26.508Z,13.90
2019-05-01T09:00:36.398Z,13.90
2019-05-01T09:04:38.368Z,14.10
2019-05-01T09:08:43.255Z,14.20
2019-05-01T09:12:51.959Z,14.40
2019-05-01T09:16:56.432Z,14.50
2019-05-01T09:21:01.278Z,14.80
2019-05-01T09:25:08.404Z,14.80
2019-05-01T09:29:17.866Z,14.80
2019-05-01T09:33:26.199Z,14.90
2019-05-01T09:37:29.545Z,14.90
2019-05-01T09:41:38.524Z,15.00
2019-05-01T09:45:42.272Z,15.10
2019-05-01T09:49:48.738Z,15.30
2019-05-01T09:54:11.798Z,15.40
2019-05-01T09:58:16.609Z,15.80
2019-05-01T10:02:22.474Z,15.80
2019-05-01T10:06:27.336Z,15.90
2019-05-01T10:10:32.188Z,15.40
2019-05-01T10:14:37.511Z,14.90
2019-05-01T10:18:42.595Z,15.10
2019-05-01T10:22:47.412Z,15.40
2019-05-01T10:26:59.980Z,15.60
2019-05-01T10:31:11.954Z,15.50
2019-05-01T10:35:23.605Z,15.50
2019-05-01T10:39:30.178Z,15.60
2019-05-01T10:43:35.662Z,16.00
2019-05-01T10:47:40.406Z,16.30
2019-05-01T10:51:45.288Z,16.50
2019-05-01T10:55:50.067Z,16.40
2019-05-01T10:59:54.959Z,16.30
2019-05-01T11:04:02.041Z,16.50
2019-05-01T11:08:07.020Z,16.60
2019-05-01T11:12:11.917Z,16.80
2019-05-01T11:16:17.173Z,17.00
2019-05-01T11:20:22.224Z,16.60
2019-05-01T11:24:27.421Z,16.80
2019-05-01T11:28:32.332Z,16.80
2019-05-01T11:32:56.217Z,17.00
2019-05-01T11:37:12.398Z,17.20
2019-05-01T11:41:22.177Z,17.50
2019-05-01T11:45:27.616Z,17.60
2019-05-01T11:49:32.489Z,17.90
2019-05-01T11:53:37.492Z,18.20
2019-05-01T11:57:42.336Z,18.40
2019-05-01T12:01:47.244Z,18.60
2019-05-01T12:05:52.432Z,18.60
2019-05-01T12:09:57.393Z,18.90
2019-05-01T12:14:02.824Z,19.00
2019-05-01T12:18:07.921Z,18.90
2019-05-01T12:22:12.905Z,19.20
2019-05-01T12:26:17.743Z,19.60
2019-05-01T12:30:22.687Z,19.90
2019-05-01T12:34:27.805Z,20.50
2019-05-01T12:38:32.548Z,21.10
2019-05-01T12:42:37.782Z,21.20
2019-05-01T12:46:57.669Z,21.70
2019-05-01T12:51:05.651Z,22.00
2019-05-01T12:55:17.947Z,22.60
2019-05-01T12:59:22.909Z,23.00
2019-05-01T13:03:27.781Z,23.50
2019-05-01T13:07:33.759Z,23.90
2019-05-01T13:11:38.571Z,24.40
2019-05-01T13:15:43.563Z,24.70
2019-05-01T13:19:48.512Z,24.70
2019-05-01T13:23:53.378Z,25.10
2019-05-01T13:28:10.455Z,25.40
2019-05-01T13:32:34.197Z,26.00
2019-05-01T13:36:39.522Z,26.60
2019-05-01T13:40:44.418Z,27.10
2019-05-01T13:44:49.316Z,27.90
2019-05-01T13:48:54.127Z,28.00
2019-05-01T13:52:59.027Z,27.70
2019-05-01T13:57:04.472Z,27.40
2019-05-01T14:01:09.394Z,27.20
2019-05-01T14:05:14.751Z,27.90
2019-05-01T14:09:28.248Z,28.00
2019-05-01T14:13:33.344Z,27.90
2019-05-01T14:17:38.106Z,27.80
2019-05-01T14:21:51.777Z,28.20
2019-05-01T14:26:02.983Z,28.80
2019-05-01T14:30:10.114Z,28.80
2019-05-01T14:34:15.107Z,29.20
2019-05-01T14:38:19.856Z,29.10
2019-05-01T14:42:24.767Z,29.30
2019-05-01T14:46:29.873Z,29.00
2019-05-01T14:50:35.102Z,29.20
2019-05-01T14:54:40.156Z,29.30
2019-05-01T14:58:45.047Z,28.80
2019-05-01T15:02:49.884Z,28.90
2019-05-01T15:06:55.072Z,29.30
2019-05-01T15:10:59.880Z,29.90
2019-05-01T15:15:19.889Z,30.50
2019-05-01T15:19:26.887Z,30.60
2019-05-01T15:23:31.917Z,31.40
2019-05-01T15:27:36.820Z,32.30
2019-05-01T15:31:41.674Z,32.70
2019-05-01T15:35:46.711Z,33.00
2019-05-01T15:39:59.286Z,33.40
2019-05-01T15:44:18.564Z,32.90
2019-05-01T15:48:23.482Z,32.30
2019-05-01T15:52:28.364Z,32.60
2019-05-01T15:56:33.228Z,33.80
2019-05-01T16:00:38.139Z,32.70
2019-05-01T16:04:42.993Z,31.50
2019-05-01T16:08:47.754Z,30.60
2019-05-01T16:12:57.992Z,30.70
2019-05-01T16:17:03.112Z,30.00
2019-05-01T16:21:08.001Z,29.70
2019-05-01T16:25:13.600Z,30.00
2019-05-01T16:29:18.428Z,30.00
2019-05-01T16:33:23.353Z,29.40
2019-05-01T16:37:28.552Z,29.40
2019-05-01T16:41:33.418Z,29.30
2019-05-01T16:45:38.675Z,28.80
2019-05-01T16:49:43.875Z,27.70
2019-05-01T16:53:48.773Z,26.70
2019-05-01T16:57:53.608Z,26.10
2019-05-01T17:02:13.749Z,26.00
2019-05-01T17:06:30.396Z,25.90
2019-05-01T17:10:36.869Z,25.80
2019-05-01T17:14:41.710Z,25.60
2019-05-01T17:18:46.527Z,25.40
2019-05-01T17:22:51.942Z,25.40
2019-05-01T17:26:57.345Z,25.60
2019-05-01T17:31:02.321Z,25.80
2019-05-01T17:35:08.026Z,25.90
2019-05-01T17:39:13.719Z,25.90
2019-05-01T17:43:18.543Z,25.80
2019-05-01T17:47:23.738Z,25.60
2019-05-01T17:51:29.790Z,25.40
2019-05-01T17:55:34.645Z,25.10
2019-05-01T17:59:39.553Z,25.00
2019-05-01T18:03:55.130Z,24.80
2019-05-01T18:07:59.867Z,24.40
2019-05-01T18:12:04.873Z,24.10
2019-05-01T18:16:09.779Z,23.70
2019-05-01T18:20:15.071Z,23.50
2019-05-01T18:24:39.189Z,23.10
2019-05-01T18:29:00.947Z,22.60
2019-05-01T18:33:05.510Z,22.00
2019-05-01T18:37:17.700Z,21.50
2019-05-01T18:41:33.899Z,21.10
2019-05-01T18:45:53.421Z,20.80
2019-05-01T18:49:58.227Z,20.50
2019-05-01T18:54:03.276Z,20.20
2019-05-01T18:58:08.171Z,20.00
2019-05-01T19:02:14.428Z,19.80
2019-05-01T19:06:21.340Z,19.50
2019-05-01T19:10:26.248Z,19.50
2019-05-01T19:14:32.018Z,19.20
2019-05-01T19:18:36.783Z,19.00
2019-05-01T19:22:41.612Z,18.80
2019-05-01T19:26:46.990Z,18.60
2019-05-01T19:30:51.949Z,18.50
2019-05-01T19:34:57.131Z,18.30
2019-05-01T19:39:02.117Z,18.20
2019-05-01T19:43:08.716Z,18.10
2019-05-01T19:47:13.605Z,18.10
2019-05-01T19:51:19.207Z,17.80
2019-05-01T19:55:25.595Z,17.70
2019-05-01T19:59:30.472Z,17.70
2019-05-01T20:03:36.805Z,17.50
2019-05-01T20:07:42.339Z,17.50
2019-05-01T20:11:47.228Z,17.30
2019-05-01T20:15:52.723Z,17.10
2019-05-01T20:19:57.500Z,17.10
2019-05-01T20:24:04.372Z,17.00
2019-05-01T20:28:08.955Z,17.00
2019-05-01T20:32:13.835Z,16.80
2019-05-01T20:36:19.108Z,16.70
2019-05-01T20:40:23.940Z,16.60
2019-05-01T20:44:28.858Z,16.70
2019-05-01T20:48:33.612Z,16.60
2019-05-01T20:52:38.477Z,16.50
2019-05-01T20:56:57.920Z,16.50
2019-05-01T21:01:03.652Z,16.50
2019-05-01T21:05:32.746Z,16.40
2019-05-01T21:09:47.114Z,16.40
2019-05-01T21:13:46.046Z,16.20
2019-05-01T21:17:51.350Z,16.20
2019-05-01T21:21:56.420Z,16.10
2019-05-01T21:26:03.643Z,16.00
2019-05-01T21:30:09.359Z,15.80
2019-05-01T21:34:14.699Z,15.60
2019-05-01T21:38:19.703Z,15.50
2019-05-01T21:42:24.642Z,15.40
2019-05-01T21:46:29.591Z,15.30
2019-05-01T21:50:34.428Z,15.20
2019-05-01T21:54:42.122Z,15.00
2019-05-01T21:58:46.931Z,15.00
2019-05-01T22:02:51.921Z,14.90
2019-05-01T22:06:57.884Z,14.90
2019-05-01T22:11:03.609Z,14.70
2019-05-01T22:15:17.349Z,14.50
2019-05-01T22:19:22.280Z,14.50
2019-05-01T22:23:28.993Z,14.50
2019-05-01T22:27:37.539Z,14.30
2019-05-01T22:32:04.548Z,14.40
2019-05-01T22:36:09.908Z,14.10
2019-05-01T22:40:16.874Z,13.80
2019-05-01T22:44:22.829Z,13.40
2019-05-01T22:48:27.796Z,13.30
2019-05-01T22:52:32.679Z,13.20
2019-05-01T22:56:37.735Z,13.30
2019-05-01T23:00:47.143Z,13.10
2019-05-01T23:04:52.210Z,13.00
2019-05-01T23:08:59.276Z,13.00
2019-05-01T23:13:05.832Z,12.90
2019-05-01T23:17:16.854Z,12.80
2019-05-01T23:21:21.754Z,12.70
2019-05-01T23:25:26.747Z,12.60
2019-05-01T23:29:31.641Z,12.50
2019-05-01T23:33:36.709Z,12.60
2019-05-01T23:37:41.540Z,12.30
2019-05-01T23:41:47.110Z,12.40
2019-05-01T23:45:53.086Z,12.30
2019-05-01T23:49:57.976Z,12.20
2019-05-01T23:54:02.968Z,12.00
2019-05-01T23:58:07.866Z,11.90
